Time;durP1;ratioP1;P1;durP2;ratioP2;P2;SDS_P1;SDS_P2;PMS_P1;PMS_P2;Temp;Humidity;BMP_temperature;BMP_pressure;BME280_temperature;BME280_humidity;BME280_pressure;Samples;Min_cycle;Max_cycle;Signal;HPM_P1;HPM_P2
2023/12/08 00:01:42;;;;;;;17.87;10.43;;;;;;;;;;5030952;28;20080;-78
2023/12/08 00:04:08;;;;;;;18.53;10.27;;;;;;;;;;5036553;28;20033;-78
2023/12/08 00:06:34;;;;;;;16.63;10.27;;;;;;;;;;5036887;28;20044;-79
2023/12/08 00:09:01;;;;;;;19.60;10.63;;;;;;;;;;5036619;28;20140;-78
2023/12/08 00:11:27;;;;;;;19.53;11.17;;;;;;;;;;5037705;28;20117;-79
2023/12/08 00:13:55;;;;;;;19.90;10.77;;;;;;;;;;5037180;28;20422;-78
2023/12/08 00:16:24;;;;;;;17.33;11.03;;;;;;;;;;5020177;28;20046;-79
2023/12/08 00:18:50;;;;;;;15.63;10.00;;;;;;;;;;5017832;28;20039;-79
2023/12/08 00:21:16;;;;;;;19.43;10.53;;;;;;;;;;5017258;28;20517;-78
2023/12/08 00:23:42;;;;;;;18.43;11.40;;;;;;;;;;5029567;28;20036;-79
2023/12/08 00:26:08;;;;;;;17.73;10.33;;;;;;;;;;5015426;28;20059;-79
2023/12/08 00:28:34;;;;;;;19.43;10.83;;;;;;;;;;5034942;28;20065;-79
2023/12/08 00:31:00;;;;;;;20.03;10.90;;;;;;;;;;5018418;28;20072;-78
2023/12/08 00:33:26;;;;;;;16.90;9.40;;;;;;;;;;5015565;28;20064;-80
2023/12/08 00:35:54;;;;;;;21.03;10.37;;;;;;;;;;5013703;28;20908;-77
2023/12/08 00:38:20;;;;;;;16.50;10.27;;;;;;;;;;5029292;28;20112;-78
2023/12/08 00:40:49;;;;;;;18.27;11.17;;;;;;;;;;5030730;28;20025;-78
2023/12/08 00:43:15;;;;;;;17.57;10.47;;;;;;;;;;5015301;28;20079;-79
2023/12/08 00:45:42;;;;;;;16.70;10.03;;;;;;;;;;5031734;28;20541;-78
2023/12/08 00:48:08;;;;;;;14.67;9.17;;;;;;;;;;5017914;28;20461;-79
2023/12/08 00:50:34;;;;;;;17.33;9.50;;;;;;;;;;5014985;28;20041;-78
2023/12/08 00:52:59;;;;;;;14.60;9.40;;;;;;;;;;5017158;28;20108;-79
2023/12/08 00:55:25;;;;;;;15.43;9.53;;;;;;;;;;5015624;28;20025;-79
2023/12/08 00:57:52;;;;;;;18.27;10.43;;;;;;;;;;5017085;28;20425;-79
2023/12/08 01:00:18;;;;;;;17.97;10.17;;;;;;;;;;5016460;28;20038;-79
2023/12/08 01:02:46;;;;;;;16.93;9.50;;;;;;;;;;5016632;28;20529;-79
2023/12/08 01:05:16;;;;;;;16.97;8.87;;;;;;;;;;5013681;28;20037;-80
2023/12/08 01:07:42;;;;;;;18.97;10.73;;;;;;;;;;5018206;28;20039;-79
2023/12/08 01:10:08;;;;;;;17.27;9.50;;;;;;;;;;5013484;28;20425;-77
2023/12/08 01:12:34;;;;;;;14.63;8.47;;;;;;;;;;5032158;28;20048;-78
2023/12/08 01:15:00;;;;;;;15.03;9.93;;;;;;;;;;5016301;28;20060;-78
2023/12/08 01:17:26;;;;;;;18.43;9.77;;;;;;;;;;5015584;28;20052;-77
2023/12/08 01:19:52;;;;;;;13.50;8.80;;;;;;;;;;5015387;28;20037;-78
2023/12/08 01:22:18;;;;;;;15.83;9.77;;;;;;;;;;5015231;28;20096;-80
2023/12/08 01:24:44;;;;;;;17.03;9.73;;;;;;;;;;5015065;28;20033;-79
2023/12/08 01:27:10;;;;;;;21.47;10.60;;;;;;;;;;5016410;28;20025;-78
2023/12/08 01:29:38;;;;;;;16.20;9.53;;;;;;;;;;5015023;28;20029;-79
2023/12/08 01:32:04;;;;;;;14.73;8.77;;;;;;;;;;5015722;28;20037;-78
2023/12/08 01:34:33;;;;;;;16.07;9.00;;;;;;;;;;5015992;28;20029;-78
2023/12/08 01:36:59;;;;;;;15.10;8.93;;;;;;;;;;5017583;28;20064;-78
2023/12/08 01:39:25;;;;;;;15.23;8.80;;;;;;;;;;5033734;28;20056;-77
2023/12/08 01:41:51;;;;;;;18.07;9.13;;;;;;;;;;5014689;28;20374;-78
2023/12/08 01:44:17;;;;;;;15.33;8.90;;;;;;;;;;5017943;28;20555;-78
2023/12/08 01:46:44;;;;;;;20.33;9.77;;;;;;;;;;5015474;28;20033;-78
2023/12/08 01:49:10;;;;;;;15.90;9.50;;;;;;;;;;5015344;28;20022;-78
2023/12/08 01:51:36;;;;;;;15.03;9.10;;;;;;;;;;5014805;28;20428;-78
2023/12/08 01:54:02;;;;;;;15.67;10.20;;;;;;;;;;5015947;28;20033;-79
2023/12/08 01:56:28;;;;;;;15.40;10.07;;;;;;;;;;5015777;28;20546;-78
2023/12/08 01:58:56;;;;;;;17.07;10.07;;;;;;;;;;5013724;28;20068;-78
2023/12/08 02:01:22;;;;;;;17.33;10.50;;;;;;;;;;5015347;28;20029;-79
2023/12/08 02:03:50;;;;;;;18.60;11.23;;;;;;;;;;5032286;28;20410;-78
2023/12/08 02:06:17;;;;;;;19.57;11.53;;;;;;;;;;5015455;28;20021;-79
2023/12/08 02:08:49;;;;;;;18.77;10.80;;;;;;;;;;5013938;28;20030;-79
2023/12/08 02:11:16;;;;;;;18.05;11.13;;;;;;;;;;5036025;28;20040;-79
2023/12/08 02:13:42;;;;;;;20.40;11.43;;;;;;;;;;5013956;28;20068;-80
2023/12/08 02:16:14;;;;;;;19.33;11.60;;;;;;;;;;5015736;28;20581;-79
2023/12/08 02:18:41;;;;;;;17.33;10.65;;;;;;;;;;5015240;28;20040;-79
2023/12/08 02:21:10;;;;;;;19.33;11.37;;;;;;;;;;5015052;28;20457;-77
2023/12/08 02:23:37;;;;;;;20.07;11.20;;;;;;;;;;5031481;28;20155;-79
2023/12/08 02:26:06;;;;;;;17.30;10.70;;;;;;;;;;5012522;28;20100;-79
2023/12/08 02:28:32;;;;;;;17.23;11.00;;;;;;;;;;5015194;28;20385;-80
2023/12/08 02:30:59;;;;;;;17.53;10.53;;;;;;;;;;5014248;28;20021;-79
2023/12/08 02:33:28;;;;;;;19.07;10.83;;;;;;;;;;5031185;28;20029;-78
2023/12/08 02:35:55;;;;;;;17.60;11.00;;;;;;;;;;5029837;28;20056;-78
2023/12/08 02:38:22;;;;;;;20.73;10.93;;;;;;;;;;5015872;28;20033;-80
2023/12/08 02:40:50;;;;;;;17.13;9.97;;;;;;;;;;5015394;28;20175;-78
2023/12/08 02:43:16;;;;;;;18.63;10.30;;;;;;;;;;5014019;28;20037;-79
2023/12/08 02:45:44;;;;;;;20.47;10.43;;;;;;;;;;5028442;28;20042;-80
2023/12/08 02:48:10;;;;;;;20.60;11.33;;;;;;;;;;5030395;28;20036;-78
2023/12/08 02:50:36;;;;;;;21.67;10.93;;;;;;;;;;5015532;28;20033;-78
2023/12/08 02:53:02;;;;;;;21.13;10.67;;;;;;;;;;5025878;28;20030;-78
2023/12/08 02:55:28;;;;;;;19.83;10.87;;;;;;;;;;5026525;28;20116;-78
2023/12/08 02:57:54;;;;;;;22.17;11.87;;;;;;;;;;5015940;28;20033;-80
2023/12/08 03:00:20;;;;;;;19.07;10.93;;;;;;;;;;5014606;28;20441;-79
2023/12/08 03:02:48;;;;;;;19.87;11.20;;;;;;;;;;5033564;28;20180;-78
2023/12/08 03:05:14;;;;;;;17.70;10.73;;;;;;;;;;5030295;28;20037;-79
2023/12/08 03:07:40;;;;;;;21.70;12.00;;;;;;;;;;5024819;28;20136;-77
2023/12/08 03:10:07;;;;;;;20.27;11.20;;;;;;;;;;5012608;28;20034;-79
2023/12/08 03:12:33;;;;;;;20.07;11.43;;;;;;;;;;5030445;28;20026;-79
2023/12/08 03:14:59;;;;;;;19.53;11.67;;;;;;;;;;5016277;28;20029;-78
2023/12/08 03:17:25;;;;;;;18.10;10.93;;;;;;;;;;5011691;28;20094;-79
2023/12/08 03:19:51;;;;;;;21.10;10.97;;;;;;;;;;5028589;28;20092;-79
2023/12/08 03:22:17;;;;;;;19.60;10.90;;;;;;;;;;5014363;28;20044;-79
2023/12/08 03:24:43;;;;;;;21.37;12.10;;;;;;;;;;5014804;28;20033;-79
2023/12/08 03:27:09;;;;;;;20.53;12.07;;;;;;;;;;5031723;28;20163;-79
2023/12/08 03:29:41;;;;;;;21.47;11.33;;;;;;;;;;5024666;28;20113;-81
2023/12/08 03:32:07;;;;;;;20.60;11.10;;;;;;;;;;5013716;28;20033;-79
2023/12/08 03:34:33;;;;;;;19.63;11.70;;;;;;;;;;5015559;28;20047;-78
2023/12/08 03:36:59;;;;;;;21.67;12.07;;;;;;;;;;5022460;28;20064;-79
2023/12/08 03:39:25;;;;;;;23.57;12.53;;;;;;;;;;5011617;28;20033;-78
2023/12/08 03:41:53;;;;;;;21.20;11.97;;;;;;;;;;5015027;28;20619;-82
2023/12/08 03:44:20;;;;;;;24.17;13.37;;;;;;;;;;5014076;28;20037;-79
2023/12/08 03:46:48;;;;;;;21.43;12.03;;;;;;;;;;5027324;28;20045;-79
2023/12/08 03:49:17;;;;;;;21.40;12.53;;;;;;;;;;5016534;28;20044;-79
2023/12/08 03:51:45;;;;;;;24.27;13.57;;;;;;;;;;5024828;28;20041;-78
2023/12/08 03:54:11;;;;;;;24.47;14.40;;;;;;;;;;5028298;28;20045;-80
2023/12/08 03:56:37;;;;;;;22.77;14.07;;;;;;;;;;5016450;28;20056;-79
2023/12/08 03:59:03;;;;;;;24.50;13.67;;;;;;;;;;5016129;28;20102;-79
2023/12/08 04:01:29;;;;;;;23.70;13.77;;;;;;;;;;5016562;28;20036;-78
2023/12/08 04:03:55;;;;;;;28.43;15.00;;;;;;;;;;5030355;28;20870;-80
2023/12/08 04:06:21;;;;;;;26.63;15.23;;;;;;;;;;5035319;28;20029;-79
2023/12/08 04:08:49;;;;;;;26.10;14.37;;;;;;;;;;5018351;28;20040;-76
2023/12/08 04:11:15;;;;;;;31.27;16.30;;;;;;;;;;5017234;28;20171;-80
2023/12/08 04:13:41;;;;;;;28.63;14.70;;;;;;;;;;5027526;28;20064;-78
2023/12/08 04:16:07;;;;;;;28.47;16.00;;;;;;;;;;5032885;28;20463;-78
2023/12/08 04:18:35;;;;;;;25.57;15.00;;;;;;;;;;5034461;28;20044;-78
2023/12/08 04:21:03;;;;;;;30.43;16.83;;;;;;;;;;5015748;28;20060;-79
2023/12/08 04:23:29;;;;;;;28.73;15.40;;;;;;;;;;5027846;28;20032;-78
2023/12/08 04:25:55;;;;;;;26.30;14.47;;;;;;;;;;5016803;28;20025;-77
2023/12/08 04:28:21;;;;;;;32.43;17.10;;;;;;;;;;5017863;28;20905;-79
2023/12/08 04:30:47;;;;;;;29.57;15.83;;;;;;;;;;5014202;28;20030;-78
2023/12/08 04:33:13;;;;;;;28.13;15.70;;;;;;;;;;5013284;28;20065;-78
2023/12/08 04:35:39;;;;;;;31.10;15.70;;;;;;;;;;5016943;28;20029;-79
2023/12/08 04:38:07;;;;;;;31.77;16.57;;;;;;;;;;5017033;28;20548;-78
2023/12/08 04:40:33;;;;;;;31.13;17.77;;;;;;;;;;5016908;28;20026;-78
2023/12/08 04:42:59;;;;;;;30.37;16.17;;;;;;;;;;5018149;28;20087;-79
2023/12/08 04:45:25;;;;;;;31.40;16.10;;;;;;;;;;5031086;28;20057;-79
2023/12/08 04:47:51;;;;;;;31.00;16.93;;;;;;;;;;5036229;28;20034;-78
2023/12/08 04:50:17;;;;;;;30.40;17.30;;;;;;;;;;5014998;28;20397;-80
2023/12/08 04:52:43;;;;;;;33.10;17.60;;;;;;;;;;5010925;28;20049;-79
2023/12/08 04:55:09;;;;;;;30.50;17.30;;;;;;;;;;5019591;28;20025;-79
2023/12/08 04:57:35;;;;;;;35.00;18.97;;;;;;;;;;5019257;28;20021;-79
2023/12/08 05:00:02;;;;;;;36.20;18.60;;;;;;;;;;5019371;28;20028;-79
2023/12/08 05:02:31;;;;;;;29.30;15.63;;;;;;;;;;5019438;28;20065;-80
2023/12/08 05:04:57;;;;;;;33.10;17.00;;;;;;;;;;5018915;28;20044;-79
2023/12/08 05:07:23;;;;;;;34.77;18.63;;;;;;;;;;5036421;28;20349;-78
2023/12/08 05:09:50;;;;;;;30.27;16.97;;;;;;;;;;5019800;28;20037;-80
2023/12/08 05:12:16;;;;;;;40.03;20.20;;;;;;;;;;5018103;28;20033;-78
2023/12/08 05:14:42;;;;;;;36.50;18.33;;;;;;;;;;5008914;28;20083;-78
2023/12/08 05:17:08;;;;;;;36.63;19.00;;;;;;;;;;5020732;28;20891;-79
2023/12/08 05:19:34;;;;;;;39.03;19.07;;;;;;;;;;5027830;28;20030;-79
2023/12/08 05:22:00;;;;;;;36.93;19.27;;;;;;;;;;5036458;28;20030;-79
2023/12/08 05:24:26;;;;;;;37.90;19.20;;;;;;;;;;5035300;28;20410;-80
2023/12/08 05:26:52;;;;;;;31.27;18.03;;;;;;;;;;5020404;28;20064;-79
2023/12/08 05:29:17;;;;;;;37.00;19.00;;;;;;;;;;5008732;28;20083;-80
2023/12/08 05:31:43;;;;;;;36.47;19.33;;;;;;;;;;5018538;28;20021;-80
2023/12/08 05:34:09;;;;;;;38.47;19.80;;;;;;;;;;5006124;28;20025;-79
2023/12/08 05:36:35;;;;;;;36.53;18.67;;;;;;;;;;5012073;28;20430;-82
2023/12/08 05:39:02;;;;;;;38.60;19.60;;;;;;;;;;5013761;28;20112;-78
2023/12/08 05:41:28;;;;;;;47.87;22.30;;;;;;;;;;5007145;28;20026;-79
2023/12/08 05:43:54;;;;;;;37.03;20.37;;;;;;;;;;5010192;28;20030;-79
2023/12/08 05:46:20;;;;;;;38.93;20.77;;;;;;;;;;5027691;28;20045;-79
2023/12/08 05:48:47;;;;;;;39.77;18.90;;;;;;;;;;5010776;28;20053;-78
2023/12/08 05:51:13;;;;;;;36.17;19.23;;;;;;;;;;5012737;28;20060;-80
2023/12/08 05:53:39;;;;;;;38.40;20.40;;;;;;;;;;5018885;28;20043;-78
2023/12/08 05:56:05;;;;;;;37.20;19.63;;;;;;;;;;5010021;28;20025;-79
2023/12/08 05:58:31;;;;;;;38.23;19.20;;;;;;;;;;5018519;28;20091;-79
2023/12/08 06:00:57;;;;;;;39.17;19.57;;;;;;;;;;5015091;28;20438;-79
2023/12/08 06:03:23;;;;;;;38.47;19.70;;;;;;;;;;5013748;28;20025;-81
2023/12/08 06:05:49;;;;;;;42.90;20.63;;;;;;;;;;5018352;28;20029;-80
2023/12/08 06:08:15;;;;;;;36.70;19.17;;;;;;;;;;5016139;28;20040;-79
2023/12/08 06:10:42;;;;;;;37.87;18.63;;;;;;;;;;5017947;28;20026;-79
2023/12/08 06:13:08;;;;;;;33.90;18.63;;;;;;;;;;5018195;28;20084;-80
2023/12/08 06:15:34;;;;;;;40.30;19.93;;;;;;;;;;5017966;28;20151;-79
2023/12/08 06:18:03;;;;;;;38.13;20.53;;;;;;;;;;5014752;28;20556;-80
2023/12/08 06:20:31;;;;;;;38.87;19.37;;;;;;;;;;5026537;28;20037;-79
2023/12/08 06:22:59;;;;;;;41.30;19.33;;;;;;;;;;5026941;28;20029;-79
2023/12/08 06:25:25;;;;;;;40.10;19.83;;;;;;;;;;5015598;28;20037;-80
2023/12/08 06:27:51;;;;;;;36.80;19.37;;;;;;;;;;5028066;28;20089;-80
2023/12/08 06:30:18;;;;;;;36.27;19.83;;;;;;;;;;5033275;28;20022;-79
2023/12/08 06:32:44;;;;;;;37.20;20.13;;;;;;;;;;5014216;28;20043;-79
2023/12/08 06:35:10;;;;;;;40.00;21.30;;;;;;;;;;5026698;28;20025;-79
2023/12/08 06:37:36;;;;;;;37.47;20.60;;;;;;;;;;5029382;28;20049;-79
2023/12/08 06:40:03;;;;;;;40.03;21.30;;;;;;;;;;5031015;28;20097;-78
2023/12/08 06:42:29;;;;;;;39.17;20.63;;;;;;;;;;5024228;28;20586;-79
2023/12/08 06:44:55;;;;;;;39.27;19.67;;;;;;;;;;5014410;28;20812;-81
2023/12/08 06:47:21;;;;;;;34.57;19.20;;;;;;;;;;5032819;28;20033;-79
2023/12/08 06:49:47;;;;;;;43.73;19.80;;;;;;;;;;5015488;28;20018;-80
2023/12/08 06:52:13;;;;;;;37.67;19.33;;;;;;;;;;5015484;28;20048;-81
2023/12/08 06:54:39;;;;;;;39.00;19.27;;;;;;;;;;5015351;28;20124;-79
2023/12/08 06:57:08;;;;;;;37.43;19.87;;;;;;;;;;5014697;28;20049;-79
2023/12/08 06:59:34;;;;;;;41.73;20.63;;;;;;;;;;5013904;28;20103;-78
2023/12/08 07:02:00;;;;;;;38.67;20.47;;;;;;;;;;5015158;28;20037;-79
2023/12/08 07:04:27;;;;;;;42.47;21.50;;;;;;;;;;5029916;28;21841;-80
2023/12/08 07:06:53;;;;;;;41.07;21.60;;;;;;;;;;5015293;28;20018;-79
2023/12/08 07:09:19;;;;;;;36.20;20.87;;;;;;;;;;5014818;28;20025;-80
2023/12/08 07:11:45;;;;;;;38.93;21.13;;;;;;;;;;5011192;28;20040;-78
2023/12/08 07:14:12;;;;;;;36.97;19.90;;;;;;;;;;5015589;28;20037;-79
2023/12/08 07:16:38;;;;;;;38.13;20.77;;;;;;;;;;5012791;28;20055;-79
2023/12/08 07:19:07;;;;;;;40.60;20.70;;;;;;;;;;5014855;28;20076;-79
2023/12/08 07:21:33;;;;;;;39.17;21.00;;;;;;;;;;5015560;28;20036;-78
2023/12/08 07:23:59;;;;;;;46.73;21.50;;;;;;;;;;5015701;28;20442;-79
2023/12/08 07:26:25;;;;;;;36.73;19.77;;;;;;;;;;5016581;28;20053;-78
2023/12/08 07:28:51;;;;;;;38.70;21.37;;;;;;;;;;5031975;28;20584;-78
2023/12/08 07:31:17;;;;;;;38.47;20.50;;;;;;;;;;5015072;28;20029;-79
2023/12/08 07:33:43;;;;;;;38.37;20.33;;;;;;;;;;5016540;28;21716;-78
2023/12/08 07:36:11;;;;;;;40.60;20.80;;;;;;;;;;5018837;28;20104;-78
2023/12/08 07:38:37;;;;;;;39.53;21.23;;;;;;;;;;5020476;28;20100;-79
2023/12/08 07:41:03;;;;;;;37.10;20.80;;;;;;;;;;5019223;28;20237;-78
2023/12/08 07:43:36;;;;;;;44.87;22.00;;;;;;;;;;5019140;28;20127;-78
2023/12/08 07:46:02;;;;;;;41.65;21.67;;;;;;;;;;5016228;28;20116;-78
2023/12/08 07:48:28;;;;;;;38.17;21.23;;;;;;;;;;5020795;28;20044;-78
2023/12/08 07:50:56;;;;;;;35.07;20.53;;;;;;;;;;5017831;28;20022;-79
2023/12/08 07:53:22;;;;;;;38.87;21.40;;;;;;;;;;5018632;28;20018;-78
2023/12/08 07:55:48;;;;;;;49.73;24.67;;;;;;;;;;5034512;28;20025;-79
2023/12/08 07:58:14;;;;;;;40.50;22.27;;;;;;;;;;5018003;28;20037;-78
2023/12/08 08:00:40;;;;;;;39.33;22.63;;;;;;;;;;5018010;28;20120;-78
2023/12/08 08:03:06;;;;;;;45.40;22.03;;;;;;;;;;5016708;28;20932;-79
2023/12/08 08:05:32;;;;;;;42.53;22.07;;;;;;;;;;5018241;28;20152;-79
2023/12/08 08:07:58;;;;;;;38.30;21.27;;;;;;;;;;5017721;28;20331;-78
2023/12/08 08:10:24;;;;;;;43.17;21.73;;;;;;;;;;5017664;28;20033;-78
2023/12/08 08:12:50;;;;;;;44.93;22.67;;;;;;;;;;5032616;28;20370;-78
2023/12/08 08:15:16;;;;;;;41.17;22.63;;;;;;;;;;5017009;28;20029;-78
2023/12/08 08:17:42;;;;;;;37.67;21.07;;;;;;;;;;5017716;28;20109;-77
2023/12/08 08:20:09;;;;;;;43.23;22.60;;;;;;;;;;5018888;28;20120;-78
2023/12/08 08:22:35;;;;;;;38.47;22.07;;;;;;;;;;5018208;28;20052;-79
2023/12/08 08:25:01;;;;;;;38.37;21.87;;;;;;;;;;5017415;28;20045;-78
2023/12/08 08:27:28;;;;;;;39.03;21.80;;;;;;;;;;5016318;28;20460;-79
2023/12/08 08:29:54;;;;;;;42.23;22.63;;;;;;;;;;5017735;28;20053;-78
2023/12/08 08:32:20;;;;;;;37.30;20.87;;;;;;;;;;5034384;28;20083;-78
2023/12/08 08:34:47;;;;;;;38.37;21.07;;;;;;;;;;5016757;28;20030;-77
2023/12/08 08:37:13;;;;;;;34.13;19.83;;;;;;;;;;5034451;28;20037;-78
2023/12/08 08:39:41;;;;;;;38.83;21.67;;;;;;;;;;5031229;28;20037;-78
2023/12/08 08:42:07;;;;;;;42.63;23.27;;;;;;;;;;5032245;28;20029;-78
2023/12/08 08:44:34;;;;;;;37.63;21.30;;;;;;;;;;5014501;28;20038;-77
2023/12/08 08:47:00;;;;;;;37.50;20.93;;;;;;;;;;5012222;28;20033;-77
2023/12/08 08:49:26;;;;;;;40.07;21.97;;;;;;;;;;5010498;28;20037;-76
2023/12/08 08:51:52;;;;;;;35.20;20.07;;;;;;;;;;5028045;28;20450;-78
2023/12/08 08:54:18;;;;;;;44.17;22.30;;;;;;;;;;5013810;28;20033;-77
2023/12/08 08:56:44;;;;;;;37.13;21.17;;;;;;;;;;5029177;28;20040;-77
2023/12/08 08:59:10;;;;;;;38.70;20.63;;;;;;;;;;5013002;28;20528;-77
2023/12/08 09:01:38;;;;;;;37.20;20.27;;;;;;;;;;5014402;28;20048;-76
2023/12/08 09:04:04;;;;;;;38.30;21.33;;;;;;;;;;5031582;28;20898;-77
2023/12/08 09:06:30;;;;;;;37.73;20.97;;;;;;;;;;5032268;28;20095;-78
2023/12/08 09:08:56;;;;;;;35.13;18.87;;;;;;;;;;5015473;28;20025;-78
2023/12/08 09:11:22;;;;;;;37.03;19.77;;;;;;;;;;5030246;28;20033;-78
2023/12/08 09:13:48;;;;;;;34.07;19.53;;;;;;;;;;5014758;28;20025;-77
2023/12/08 09:16:14;;;;;;;36.80;20.87;;;;;;;;;;5028980;28;20022;-78
2023/12/08 09:18:40;;;;;;;39.13;21.80;;;;;;;;;;5017143;28;20021;-78
2023/12/08 09:21:09;;;;;;;40.70;20.50;;;;;;;;;;5015852;28;20426;-78
2023/12/08 09:23:35;;;;;;;39.07;20.30;;;;;;;;;;5016561;28;20124;-78
2023/12/08 09:26:01;;;;;;;38.97;21.37;;;;;;;;;;5017727;28;20037;-77
2023/12/08 09:28:27;;;;;;;41.97;22.73;;;;;;;;;;5032292;28;20552;-78
2023/12/08 09:30:53;;;;;;;43.17;23.13;;;;;;;;;;5022042;28;20056;-77
2023/12/08 09:33:19;;;;;;;42.83;22.10;;;;;;;;;;5033579;28;20450;-78
2023/12/08 09:35:45;;;;;;;40.80;21.73;;;;;;;;;;5018859;28;20041;-77
2023/12/08 09:38:13;;;;;;;38.13;22.00;;;;;;;;;;5015484;28;20473;-79
2023/12/08 09:40:42;;;;;;;42.47;21.83;;;;;;;;;;5035865;28;20108;-78
2023/12/08 09:43:12;;;;;;;37.33;20.77;;;;;;;;;;5016317;28;20041;-77
2023/12/08 09:45:39;;;;;;;39.73;20.10;;;;;;;;;;5014827;28;20025;-78
2023/12/08 09:48:06;;;;;;;39.50;22.20;;;;;;;;;;5016817;28;20037;-78
2023/12/08 09:50:33;;;;;;;36.90;21.13;;;;;;;;;;5018816;28;20480;-78
2023/12/08 09:53:00;;;;;;;38.77;20.87;;;;;;;;;;5031783;28;20026;-78
2023/12/08 09:55:27;;;;;;;39.90;21.07;;;;;;;;;;5018072;28;20057;-78
2023/12/08 09:57:53;;;;;;;40.10;21.67;;;;;;;;;;5011207;28;20087;-77
2023/12/08 10:00:20;;;;;;;38.60;21.07;;;;;;;;;;5012508;28;20076;-77
2023/12/08 10:02:46;;;;;;;35.73;20.23;;;;;;;;;;5030277;28;20449;-78
2023/12/08 10:05:12;;;;;;;35.67;21.60;;;;;;;;;;5014073;28;20040;-77
2023/12/08 10:07:40;;;;;;;37.43;21.30;;;;;;;;;;5014328;28;20545;-77
2023/12/08 10:10:08;;;;;;;38.80;19.97;;;;;;;;;;5014405;28;20037;-76
2023/12/08 10:12:34;;;;;;;37.60;19.23;;;;;;;;;;5009854;28;20021;-77
2023/12/08 10:15:01;;;;;;;42.17;20.97;;;;;;;;;;5016426;28;20068;-79
2023/12/08 10:17:27;;;;;;;34.30;19.53;;;;;;;;;;5016059;28;20381;-78
2023/12/08 10:20:12;;;;;;;34.80;19.17;;;;;;;;;;5028041;28;20156;-77
2023/12/08 10:22:48;;;;;;;35.40;18.53;;;;;;;;;;5032088;28;20029;-79
2023/12/08 10:25:18;;;;;;;32.93;18.40;;;;;;;;;;5015713;28;20683;-79
2023/12/08 10:27:49;;;;;;;36.13;19.30;;;;;;;;;;5013530;28;20052;-78
2023/12/08 10:30:15;;;;;;;33.47;18.33;;;;;;;;;;5014805;28;20076;-79
2023/12/08 10:32:42;;;;;;;36.83;19.70;;;;;;;;;;5029051;28;20061;-78
2023/12/08 10:35:10;;;;;;;37.27;19.33;;;;;;;;;;5029215;28;20116;-79
2023/12/08 10:37:36;;;;;;;31.73;18.17;;;;;;;;;;5032890;28;20080;-79
2023/12/08 10:40:02;;;;;;;30.83;18.33;;;;;;;;;;5030370;28;20036;-79
2023/12/08 10:42:28;;;;;;;29.77;17.70;;;;;;;;;;5016632;28;20369;-78
2023/12/08 10:44:54;;;;;;;34.43;18.23;;;;;;;;;;5009328;28;20036;-78
2023/12/08 10:47:21;;;;;;;32.33;17.80;;;;;;;;;;5015616;28;20025;-78
2023/12/08 10:49:48;;;;;;;31.87;18.27;;;;;;;;;;5014180;28;20443;-78
2023/12/08 10:52:15;;;;;;;31.80;18.03;;;;;;;;;;5012763;28;20043;-78
2023/12/08 10:54:43;;;;;;;28.67;16.73;;;;;;;;;;5021557;28;20057;-79
2023/12/08 10:57:09;;;;;;;35.10;18.90;;;;;;;;;;5019636;28;20029;-78
2023/12/08 10:59:37;;;;;;;26.47;15.87;;;;;;;;;;5017963;28;20045;-79
2023/12/08 11:02:04;;;;;;;27.07;16.37;;;;;;;;;;5017810;28;20030;-79
2023/12/08 11:04:34;;;;;;;33.03;19.07;;;;;;;;;;5036911;28;20119;-78
2023/12/08 11:07:02;;;;;;;33.90;18.37;;;;;;;;;;5014732;28;20022;-80
2023/12/08 11:09:30;;;;;;;33.90;18.60;;;;;;;;;;5022530;28;20096;-79
2023/12/08 11:12:02;;;;;;;37.80;20.70;;;;;;;;;;5037257;28;20452;-79
2023/12/08 11:14:38;;;;;;;43.03;24.45;;;;;;;;;;5021436;28;20116;-79
2023/12/08 11:17:06;;;;;;;38.77;20.40;;;;;;;;;;5041716;28;20026;-78
2023/12/08 11:19:34;;;;;;;34.60;18.40;;;;;;;;;;5021780;28;20029;-78
2023/12/08 11:22:00;;;;;;;34.43;19.60;;;;;;;;;;5018690;28;20030;-77
2023/12/08 11:24:30;;;;;;;36.70;19.27;;;;;;;;;;5041267;28;20032;-78
2023/12/08 11:27:06;;;;;;;33.37;18.50;;;;;;;;;;5022054;28;20021;-78
2023/12/08 11:29:42;;;;;;;33.60;17.50;;;;;;;;;;5013989;28;20033;-78
2023/12/08 11:32:11;;;;;;;39.00;20.07;;;;;;;;;;5013944;28;20024;-78
2023/12/08 11:34:42;;;;;;;33.63;18.87;;;;;;;;;;5040227;28;20025;-78
2023/12/08 11:37:08;;;;;;;33.27;19.13;;;;;;;;;;5022196;28;20029;-78
2023/12/08 11:39:35;;;;;;;36.43;19.27;;;;;;;;;;5036745;28;20029;-78
2023/12/08 11:42:09;;;;;;;32.43;19.60;;;;;;;;;;5019018;28;20053;-78
2023/12/08 11:44:39;;;;;;;35.57;20.60;;;;;;;;;;5040217;28;20029;-78
2023/12/08 11:47:06;;;;;;;33.87;18.87;;;;;;;;;;5019532;28;20026;-79
2023/12/08 11:49:32;;;;;;;34.43;19.63;;;;;;;;;;5023084;28;20022;-78
2023/12/08 11:52:10;;;;;;;36.83;19.77;;;;;;;;;;5018373;28;20029;-78
2023/12/08 11:54:58;;;;;;;35.93;19.97;;;;;;;;;;5033491;28;20025;-79
2023/12/08 11:57:24;;;;;;;36.93;19.20;;;;;;;;;;5023155;28;20038;-78
2023/12/08 11:59:50;;;;;;;36.33;19.33;;;;;;;;;;5018769;28;20031;-78
2023/12/08 12:02:16;;;;;;;36.93;20.73;;;;;;;;;;5017635;28;20029;-79
2023/12/08 12:04:43;;;;;;;39.33;21.80;;;;;;;;;;5011610;28;20025;-79
2023/12/08 12:07:09;;;;;;;37.80;19.63;;;;;;;;;;5019243;28;20021;-79
2023/12/08 12:09:35;;;;;;;34.37;19.63;;;;;;;;;;5021874;28;20461;-78
2023/12/08 12:12:15;;;;;;;34.30;18.47;;;;;;;;;;5007165;28;20058;-78
2023/12/08 12:14:46;;;;;;;33.70;18.00;;;;;;;;;;5041830;28;20034;-78
2023/12/08 12:17:12;;;;;;;35.87;17.67;;;;;;;;;;5018998;28;20035;-78
2023/12/08 12:19:38;;;;;;;34.20;19.80;;;;;;;;;;5020624;28;20100;-79
2023/12/08 12:22:04;;;;;;;32.30;19.53;;;;;;;;;;5017463;28;20071;-78
2023/12/08 12:24:31;;;;;;;32.53;20.10;;;;;;;;;;5016783;28;20116;-78
2023/12/08 12:26:57;;;;;;;38.13;20.60;;;;;;;;;;5032586;28;20018;-78
2023/12/08 12:29:24;;;;;;;32.23;18.27;;;;;;;;;;5017751;28;20370;-79
2023/12/08 12:31:50;;;;;;;37.80;19.63;;;;;;;;;;5028720;28;20144;-78
2023/12/08 12:34:17;;;;;;;39.27;20.77;;;;;;;;;;5033272;28;20031;-78
2023/12/08 12:36:43;;;;;;;40.37;20.93;;;;;;;;;;5017421;28;20038;-78
2023/12/08 12:39:13;;;;;;;41.57;21.17;;;;;;;;;;5013354;28;20025;-78
2023/12/08 12:41:42;;;;;;;38.50;19.73;;;;;;;;;;5017609;28;20041;-78
2023/12/08 12:44:11;;;;;;;37.80;20.47;;;;;;;;;;5031803;28;20057;-78
2023/12/08 12:46:41;;;;;;;40.63;20.13;;;;;;;;;;5015640;28;20025;-77
2023/12/08 12:49:07;;;;;;;36.13;19.67;;;;;;;;;;5014719;28;20595;-78
2023/12/08 12:51:37;;;;;;;35.97;19.53;;;;;;;;;;5033999;28;20029;-78
2023/12/08 12:54:04;;;;;;;38.67;20.30;;;;;;;;;;5033023;28;20108;-79
2023/12/08 12:56:32;;;;;;;35.30;18.30;;;;;;;;;;5033465;28;20084;-79
2023/12/08 12:59:04;;;;;;;35.73;18.80;;;;;;;;;;5033077;28;20034;-78
2023/12/08 13:01:31;;;;;;;38.90;17.75;;;;;;;;;;5015352;28;20047;-77
2023/12/08 13:03:57;;;;;;;33.13;16.97;;;;;;;;;;5016789;28;20029;-78
2023/12/08 13:06:27;;;;;;;34.57;18.53;;;;;;;;;;5017159;28;20082;-79
2023/12/08 13:08:55;;;;;;;35.90;18.90;;;;;;;;;;5015026;28;20109;-78
2023/12/08 13:11:21;;;;;;;38.00;17.60;;;;;;;;;;5016855;28;20075;-78
2023/12/08 13:13:47;;;;;;;34.83;18.80;;;;;;;;;;5016598;28;20581;-78
2023/12/08 13:16:13;;;;;;;32.50;17.00;;;;;;;;;;5017056;28;20036;-77
2023/12/08 13:18:46;;;;;;;32.93;17.20;;;;;;;;;;5016065;28;20025;-79
2023/12/08 13:21:12;;;;;;;33.70;19.10;;;;;;;;;;5016080;28;21720;-79
2023/12/08 13:23:39;;;;;;;37.90;18.73;;;;;;;;;;5017023;28;20025;-79
2023/12/08 13:26:05;;;;;;;33.23;16.63;;;;;;;;;;5015192;28;20034;-79
2023/12/08 13:28:34;;;;;;;31.63;16.53;;;;;;;;;;5016663;28;20083;-78
2023/12/08 13:31:00;;;;;;;38.77;18.17;;;;;;;;;;5014058;28;20029;-78
2023/12/08 13:33:26;;;;;;;38.93;19.43;;;;;;;;;;5017347;28;20025;-78
2023/12/08 13:35:53;;;;;;;38.20;17.70;;;;;;;;;;5015629;28;20025;-79
2023/12/08 13:38:22;;;;;;;40.73;19.47;;;;;;;;;;5015663;28;20125;-78
2023/12/08 13:40:48;;;;;;;40.53;17.87;;;;;;;;;;5016713;28;20056;-77
2023/12/08 13:43:14;;;;;;;42.70;18.43;;;;;;;;;;5015986;28;20033;-80
2023/12/08 13:45:40;;;;;;;31.40;16.47;;;;;;;;;;5032252;28;20103;-78
2023/12/08 13:48:06;;;;;;;27.23;15.27;;;;;;;;;;5032199;28;20022;-78
2023/12/08 13:50:32;;;;;;;41.17;19.90;;;;;;;;;;5014713;28;20030;-78
2023/12/08 13:52:58;;;;;;;36.13;18.40;;;;;;;;;;5017377;28;20466;-78
2023/12/08 13:55:25;;;;;;;37.33;17.67;;;;;;;;;;5016673;28;20043;-79
2023/12/08 13:57:51;;;;;;;30.60;17.17;;;;;;;;;;5019790;28;20055;-79
2023/12/08 14:00:17;;;;;;;31.93;16.00;;;;;;;;;;5032499;28;20436;-78
2023/12/08 14:02:43;;;;;;;37.00;16.63;;;;;;;;;;5014858;28;20049;-78
2023/12/08 14:05:10;;;;;;;30.70;16.50;;;;;;;;;;5015741;28;20068;-79
2023/12/08 14:07:36;;;;;;;31.23;16.00;;;;;;;;;;5013990;28;20036;-77
2023/12/08 14:10:04;;;;;;;37.83;17.50;;;;;;;;;;5015359;28;20064;-78
2023/12/08 14:12:30;;;;;;;30.47;15.63;;;;;;;;;;5014875;28;20075;-79
2023/12/08 14:14:56;;;;;;;37.00;18.07;;;;;;;;;;5016733;28;20040;-79
2023/12/08 14:17:21;;;;;;;32.53;15.83;;;;;;;;;;5014254;28;20034;-79